NEW HOGAN LAKE (NHG)

Elevation: 554' · CALAVERAS R basin · Operator: US Army Corps of Engineers

Provisional data, subject to change.
Query executed Wednesday at 6:44:13   clock

Select a sensor type for a plot of data.
Note: Reservoir Flows are daily averages.

Earlier

Date RES ELE    STORAGE    RES CHG    TOC STO    OUTFLOW    INFLOW    FNF    PPT INC    TEMP MN    TEMP MX   
 FEET   AF   AF   AF   CFS   CFS   CFS   INCHES   DEG F   DEG F  
06/24/2014 634.94 78006 -368 317100 158 -6 -6 0.00 16 34
06/25/2014 634.74 77620 -386 317100 182 6 6 0.00 17 30
06/26/2014 634.52 77197 -423 317100 191 -5 -5 0.00 16 29
06/27/2014 634.26 76698 -499 317100 230 -3 -3 0.00 13 31
06/28/2014 634.00 76202 -496 317100 244 14 14 0.00 15 32
06/29/2014 633.75 75726 -476 317100 220 2 2 0.00 16 37
06/30/2014 633.55 75346 -380 317100 186 20 20 0.00 20 41
07/01/2014 633.38 75025 -321 317100 150 13 13 0.00 21 37
07/02/2014 633.15 74591 -434 317100 184 -12 -3 0.00 16 36
07/03/2014 632.91 74139 -452 317100 219 13 13 0.00 17 36
07/04/2014 632.65 73652 -487 317100 219 -1 -1 0.00 18 39
07/05/2014 632.43 73242 -410 317100 194 12 12 0.00 18 37
07/06/2014 632.23 72870 -372 317100 174 11 11 0.00 16 38
07/07/2014 632.01 72462 -408 317100 190 -0 0 0.00 20 34
07/08/2014 631.78 72036 -426 317100 198 4 4 0.00 22 37
07/09/2014 631.55 71613 -423 317100 199 7 7 0.00 18 36
07/10/2014 631.32 71191 -422 317100 198 5 5 0.00 15 33
07/11/2014 631.08 70751 -440 317100 198 -4 -4 0.00 15 32
07/12/2014 630.89 70405 -346 317100 168 14 -- 0.00 14 34
07/13/2014 630.72 70096 -309 317100 155 20 -- 0.00 17 37
07/14/2014 630.54 69769 -327 317100 157 15 -- 0.00 22 42
07/15/2014 630.32 69372 -397 317100 -- -- -- -- -- --
07/16/2014 630.09 68957 -415 317100 191 -1 -1 0.00 18 31
07/17/2014 629.86 68544 -413 317100 196 6 6 0.00 16 31
07/18/2014 629.64 68150 -394 317100 184 3 3 0.00 15 32
07/19/2014 629.43 67776 -374 317100 184 16 16 0.00 16 36
07/20/2014 629.19 67349 -427 317100 195 -7 -7 0.00 20 29
07/21/2014 628.95 66924 -425 317100 202 6 6 0.00 17 31
07/22/2014 628.73 66536 -388 317100 -- -- -- -- -- --
07/23/2014 -- -- -- -- -- -- -- -- -- --

Later | Latest

Warning! This data is preliminary and subject to revision.

Download Data Now Download Data Now | Show NHG Map | Plot NHG Data | 1 Month NHG Data | Real-Time NHG Data | NHG Info